Main page
METAR-TAF:

METAR-TAF

Airports :

Maré Airport

Maré, New Caledonia

latitude: 21-28-53S, longitude: 168-02-15E, elevation: 42 m

METAR: missing

Time: 22:43 (11:43 UTC)

Forecast

The report was made 43 minutes ago, at 11:00 UTC
Forecast valid from 20 at 12 UTC to 21 at 12 UTC
Wind 2 kt from variable directions
Visibility 10 km or more
Few clouds at a height of 3000 ft
Scattered clouds at a height of 4000 ft
Probability 30% :
Temporary
from 20 at 12 UTC to 20 at 18 UTC
rain showers
Becoming
from 21 at 00 UTC to 21 at 02 UTC
Wind 10 kt from the Southeast
Probability 40% :
Temporary
from 21 at 00 UTC to 21 at 06 UTC
Wind 10 kt from the Southeast with gusts up to 25 kt
rain showers,

TAF: NWWR 201100Z 2012/2112 VRB02KT 9999 FEW030 SCT040 PROB30 TEMPO 2012/2018 SHRA BECMG 2100/2102 13010KT PROB40 TEMPO 2100/2106 13010G25KT SHRA

Weather observations and forecasts of more than 4000 airports (METAR and TAF reports).

The available stations are represented by yellow and red dots on the map.

Hover mouse over dot to see the name of the station.

Then click to see weather observations and forecasts.

To change the map : click on the green buttons with a black cross to zoom in, on the green button with a dash to zoom out, or on the green arrows for adjacent maps.


METAR-TAF: